Rardin, Illinois
Current Conditions -  °F | °C
As of 5:53 PM on Thursday 27 Nov 2014 (Local Time) from KMTO Reporting Station
Broken Clouds Broken Clouds  
Wind Chill:   Ceiling: 2000
Heat Index: 21°   Visibility: 10mi
Dew Point: 15°   Wind: 14mph
Humidity: 78%   Direction: 310°NW
Pressure: 30.44"   Gusts: NA
Location:  39.5548°N, 88.1725°W
Report Text: KMTO 272353Z AUTO 31012KT 10SM BKN020 M06/M09 A3044 RMK AO2 SLP320 60000 T10611094 11017 21061 51015
Loading
Personal Weather Stations






























Interactive Weather Map New forecast layout! Learn more

10-Day Weather Forecast

Advertisements
Track Severe Weather on mobile